sensor_id;sensor_type;location;lat;lon;timestamp;pressure;altitude;pressure_sealevel;temperature;humidity
77723;BME280;67811;42.656;23.394;2023-03-20T00:00:18;95427.63;;;5.07;61.20
77723;BME280;67811;42.656;23.394;2023-03-20T00:02:50;95419.66;;;4.89;61.55
77723;BME280;67811;42.656;23.394;2023-03-20T00:05:23;95419.25;;;4.84;61.91
77723;BME280;67811;42.656;23.394;2023-03-20T00:07:55;95412.75;;;4.79;62.50
77723;BME280;67811;42.656;23.394;2023-03-20T00:10:30;95411.09;;;4.78;62.44
77723;BME280;67811;42.656;23.394;2023-03-20T00:13:02;95407.78;;;4.75;62.57
77723;BME280;67811;42.656;23.394;2023-03-20T00:15:35;95399.91;;;4.66;62.76
77723;BME280;67811;42.656;23.394;2023-03-20T00:18:13;95402.69;;;4.64;62.97
77723;BME280;67811;42.656;23.394;2023-03-20T00:20:46;95407.25;;;4.43;63.70
77723;BME280;67811;42.656;23.394;2023-03-20T00:23:16;95407.41;;;4.32;63.96
77723;BME280;67811;42.656;23.394;2023-03-20T00:25:47;95402.97;;;4.22;64.43
77723;BME280;67811;42.656;23.394;2023-03-20T00:28:36;95390.72;;;4.13;64.73
77723;BME280;67811;42.656;23.394;2023-03-20T00:31:17;95389.47;;;4.08;64.68
77723;BME280;67811;42.656;23.394;2023-03-20T00:33:50;95390.00;;;4.11;65.11
77723;BME280;67811;42.656;23.394;2023-03-20T00:36:22;95384.75;;;4.11;64.55
77723;BME280;67811;42.656;23.394;2023-03-20T00:38:53;95391.97;;;4.19;64.38
77723;BME280;67811;42.656;23.394;2023-03-20T00:41:25;95384.91;;;4.19;64.42
77723;BME280;67811;42.656;23.394;2023-03-20T00:43:58;95377.16;;;4.28;64.14
77723;BME280;67811;42.656;23.394;2023-03-20T00:46:31;95381.75;;;4.35;63.77
77723;BME280;67811;42.656;23.394;2023-03-20T00:49:05;95388.06;;;4.33;63.96
77723;BME280;67811;42.656;23.394;2023-03-20T00:51:37;95388.50;;;4.38;63.62
77723;BME280;67811;42.656;23.394;2023-03-20T00:54:11;95377.47;;;4.34;63.29
77723;BME280;67811;42.656;23.394;2023-03-20T00:56:44;95385.88;;;4.38;63.05
77723;BME280;67811;42.656;23.394;2023-03-20T00:59:18;95388.06;;;4.33;63.24
77723;BME280;67811;42.656;23.394;2023-03-20T01:01:49;95380.09;;;4.25;63.14
77723;BME280;67811;42.656;23.394;2023-03-20T01:04:20;95375.38;;;4.28;63.00
77723;BME280;67811;42.656;23.394;2023-03-20T01:06:52;95365.72;;;4.19;62.89
77723;BME280;67811;42.656;23.394;2023-03-20T01:09:23;95363.22;;;4.17;62.83
77723;BME280;67811;42.656;23.394;2023-03-20T01:11:53;95371.66;;;4.21;63.54
77723;BME280;67811;42.656;23.394;2023-03-20T01:14:24;95366.81;;;4.16;63.13
77723;BME280;67811;42.656;23.394;2023-03-20T01:16:54;95367.13;;;4.13;63.10
77723;BME280;67811;42.656;23.394;2023-03-20T01:19:25;95369.19;;;4.10;63.58
77723;BME280;67811;42.656;23.394;2023-03-20T01:21:57;95366.97;;;4.05;63.19
77723;BME280;67811;42.656;23.394;2023-03-20T01:24:27;95362.13;;;4.01;63.83
77723;BME280;67811;42.656;23.394;2023-03-20T01:26:58;95359.94;;;3.86;63.85
77723;BME280;67811;42.656;23.394;2023-03-20T01:29:29;95363.63;;;3.84;64.26
77723;BME280;67811;42.656;23.394;2023-03-20T01:32:00;95365.31;;;3.75;64.80
77723;BME280;67811;42.656;23.394;2023-03-20T01:34:30;95367.34;;;3.62;65.12
77723;BME280;67811;42.656;23.394;2023-03-20T01:37:02;95367.22;;;3.63;64.76
77723;BME280;67811;42.656;23.394;2023-03-20T01:39:34;95365.69;;;3.70;64.62
77723;BME280;67811;42.656;23.394;2023-03-20T01:42:05;95367.06;;;3.55;65.38
77723;BME280;67811;42.656;23.394;2023-03-20T01:44:36;95371.22;;;3.58;65.29
77723;BME280;67811;42.656;23.394;2023-03-20T01:47:14;95366.78;;;3.58;65.55
77723;BME280;67811;42.656;23.394;2023-03-20T01:50:21;95378.09;;;3.59;65.69
77723;BME280;67811;42.656;23.394;2023-03-20T01:53:01;95373.94;;;3.56;65.78
77723;BME280;67811;42.656;23.394;2023-03-20T01:55:34;95381.13;;;3.54;65.99
77723;BME280;67811;42.656;23.394;2023-03-20T01:58:07;95371.88;;;3.50;65.84
77723;BME280;67811;42.656;23.394;2023-03-20T02:00:40;95376.69;;;3.45;66.41
77723;BME280;67811;42.656;23.394;2023-03-20T02:03:11;95374.88;;;3.36;66.47
77723;BME280;67811;42.656;23.394;2023-03-20T02:05:43;95368.63;;;3.27;66.76
77723;BME280;67811;42.656;23.394;2023-03-20T02:08:23;95372.03;;;3.18;67.12
77723;BME280;67811;42.656;23.394;2023-03-20T02:10:56;95374.22;;;3.13;67.58
77723;BME280;67811;42.656;23.394;2023-03-20T02:13:29;95370.09;;;3.10;67.51
77723;BME280;67811;42.656;23.394;2023-03-20T02:16:03;95357.53;;;3.04;67.76
77723;BME280;67811;42.656;23.394;2023-03-20T02:18:34;95363.59;;;3.05;67.92
77723;BME280;67811;42.656;23.394;2023-03-20T02:21:34;95361.38;;;3.00;67.89
77723;BME280;67811;42.656;23.394;2023-03-20T02:24:29;95344.09;;;2.88;67.83
77723;BME280;67811;42.656;23.394;2023-03-20T02:27:08;95372.41;;;3.04;67.64
77723;BME280;67811;42.656;23.394;2023-03-20T02:30:16;95369.94;;;3.12;67.30
77723;BME280;67811;42.656;23.394;2023-03-20T02:33:30;95367.78;;;3.17;66.80
77723;BME280;67811;42.656;23.394;2023-03-20T02:36:36;95371.06;;;3.09;67.02
77723;BME280;67811;42.656;23.394;2023-03-20T02:39:42;95372.13;;;3.07;67.28
77723;BME280;67811;42.656;23.394;2023-03-20T02:42:19;95371.25;;;2.97;67.61
77723;BME280;67811;42.656;23.394;2023-03-20T02:45:02;95371.25;;;2.87;68.05
77723;BME280;67811;42.656;23.394;2023-03-20T02:47:36;95375.59;;;2.77;68.65
77723;BME280;67811;42.656;23.394;2023-03-20T02:50:14;95369.09;;;2.71;68.56
77723;BME280;67811;42.656;23.394;2023-03-20T02:52:50;95361.09;;;2.73;68.55
77723;BME280;67811;42.656;23.394;2023-03-20T02:55:31;95363.88;;;2.71;68.51
77723;BME280;67811;42.656;23.394;2023-03-20T02:58:12;95351.03;;;2.68;68.90
77723;BME280;67811;42.656;23.394;2023-03-20T03:00:46;95358.84;;;2.58;69.03
77723;BME280;67811;42.656;23.394;2023-03-20T03:03:23;95352.59;;;2.50;69.26
77723;BME280;67811;42.656;23.394;2023-03-20T03:05:58;95352.72;;;2.48;69.42
77723;BME280;67811;42.656;23.394;2023-03-20T03:08:35;95356.09;;;2.39;69.62
77723;BME280;67811;42.656;23.394;2023-03-20T03:11:09;95354.69;;;2.35;70.03
77723;BME280;67811;42.656;23.394;2023-03-20T03:13:43;95356.63;;;2.33;69.73
77723;BME280;67811;42.656;23.394;2023-03-20T03:16:18;95355.06;;;2.30;69.43
77723;BME280;67811;42.656;23.394;2023-03-20T03:18:57;95362.91;;;2.30;69.52
77723;BME280;67811;42.656;23.394;2023-03-20T03:21:29;95359.59;;;2.28;69.78
77723;BME280;67811;42.656;23.394;2023-03-20T03:24:02;95351.06;;;2.26;69.59
77723;BME280;67811;42.656;23.394;2023-03-20T03:26:37;95356.53;;;2.23;70.02
77723;BME280;67811;42.656;23.394;2023-03-20T03:29:11;95358.03;;;2.16;70.29
77723;BME280;67811;42.656;23.394;2023-03-20T03:31:44;95364.44;;;2.12;70.30
77723;BME280;67811;42.656;23.394;2023-03-20T03:34:17;95355.91;;;2.10;70.88
77723;BME280;67811;42.656;23.394;2023-03-20T03:36:53;95365.28;;;2.13;70.67
77723;BME280;67811;42.656;23.394;2023-03-20T03:39:34;95359.34;;;2.10;70.68
77723;BME280;67811;42.656;23.394;2023-03-20T03:42:12;95359.91;;;2.14;70.72
77723;BME280;67811;42.656;23.394;2023-03-20T03:44:55;95362.53;;;2.14;70.63
77723;BME280;67811;42.656;23.394;2023-03-20T03:47:30;95364.75;;;2.19;70.18
77723;BME280;67811;42.656;23.394;2023-03-20T03:50:06;95362.97;;;2.19;69.96
77723;BME280;67811;42.656;23.394;2023-03-20T03:52:40;95362.03;;;2.20;69.87
77723;BME280;67811;42.656;23.394;2023-03-20T03:55:16;95364.53;;;2.22;69.87
77723;BME280;67811;42.656;23.394;2023-03-20T03:57:54;95364.16;;;2.26;69.65
77723;BME280;67811;42.656;23.394;2023-03-20T04:00:26;95363.78;;;2.31;69.14
77723;BME280;67811;42.656;23.394;2023-03-20T04:02:58;95359.75;;;2.27;69.19
77723;BME280;67811;42.656;23.394;2023-03-20T04:05:30;95348.56;;;2.25;69.37
77723;BME280;67811;42.656;23.394;2023-03-20T04:08:03;95354.06;;;2.22;69.86
77723;BME280;67811;42.656;23.394;2023-03-20T04:10:34;95349.06;;;2.19;70.01
77723;BME280;67811;42.656;23.394;2023-03-20T04:13:06;95346.28;;;2.10;70.81
77723;BME280;67811;42.656;23.394;2023-03-20T04:15:37;95348.25;;;2.18;71.15
77723;BME280;67811;42.656;23.394;2023-03-20T04:18:10;95340.09;;;2.11;70.78
77723;BME280;67811;42.656;23.394;2023-03-20T04:20:44;95333.59;;;2.06;71.51
77723;BME280;67811;42.656;23.394;2023-03-20T04:23:14;95341.59;;;2.14;71.48
77723;BME280;67811;42.656;23.394;2023-03-20T04:25:45;95341.22;;;2.19;71.79
77723;BME280;67811;42.656;23.394;2023-03-20T04:28:17;95347.63;;;2.26;70.98
77723;BME280;67811;42.656;23.394;2023-03-20T04:30:51;95341.50;;;2.36;70.64
77723;BME280;67811;42.656;23.394;2023-03-20T04:33:23;95342.44;;;2.56;69.85
77723;BME280;67811;42.656;23.394;2023-03-20T04:35:54;95333.31;;;2.51;70.05
77723;BME280;67811;42.656;23.394;2023-03-20T04:38:25;95338.75;;;2.59;69.63
77723;BME280;67811;42.656;23.394;2023-03-20T04:40:56;95337.56;;;2.73;68.65
77723;BME280;67811;42.656;23.394;2023-03-20T04:43:28;95337.75;;;2.81;68.54
77723;BME280;67811;42.656;23.394;2023-03-20T04:45:59;95345.84;;;2.78;68.70
77723;BME280;67811;42.656;23.394;2023-03-20T04:48:30;95346.53;;;2.80;68.51
77723;BME280;67811;42.656;23.394;2023-03-20T04:51:01;95350.56;;;2.84;68.49
77723;BME280;67811;42.656;23.394;2023-03-20T04:53:31;95351.28;;;2.96;67.87
77723;BME280;67811;42.656;23.394;2023-03-20T04:56:02;95365.09;;;2.98;67.56
77723;BME280;67811;42.656;23.394;2023-03-20T04:58:34;95365.34;;;2.95;67.71
77723;BME280;67811;42.656;23.394;2023-03-20T05:01:05;95362.59;;;2.96;67.57
77723;BME280;67811;42.656;23.394;2023-03-20T05:03:35;95365.63;;;2.92;67.74
77723;BME280;67811;42.656;23.394;2023-03-20T05:06:07;95372.06;;;2.87;67.71
77723;BME280;67811;42.656;23.394;2023-03-20T05:08:37;95375.44;;;2.99;67.67
77723;BME280;67811;42.656;23.394;2023-03-20T05:11:08;95379.06;;;3.08;67.08
77723;BME280;67811;42.656;23.394;2023-03-20T05:13:40;95378.25;;;3.17;67.12
77723;BME280;67811;42.656;23.394;2023-03-20T05:16:10;95375.38;;;3.20;66.73
77723;BME280;67811;42.656;23.394;2023-03-20T05:18:41;95369.22;;;3.31;66.55
77723;BME280;67811;42.656;23.394;2023-03-20T05:21:11;95375.72;;;3.46;66.08
77723;BME280;67811;42.656;23.394;2023-03-20T05:23:42;95380.69;;;3.49;65.68
77723;BME280;67811;42.656;23.394;2023-03-20T05:26:12;95381.94;;;3.55;65.42
77723;BME280;67811;42.656;23.394;2023-03-20T05:28:44;95388.59;;;3.59;65.45
77723;BME280;67811;42.656;23.394;2023-03-20T05:31:16;95375.63;;;3.57;65.51
77723;BME280;67811;42.656;23.394;2023-03-20T05:33:46;95388.19;;;3.83;65.13
77723;BME280;67811;42.656;23.394;2023-03-20T05:36:17;95386.69;;;4.00;64.64
77723;BME280;67811;42.656;23.394;2023-03-20T05:38:47;95393.88;;;3.88;64.90
77723;BME280;67811;42.656;23.394;2023-03-20T05:41:18;95391.94;;;3.80;65.64
77723;BME280;67811;42.656;23.394;2023-03-20T05:43:50;95385.84;;;3.89;65.26
77723;BME280;67811;42.656;23.394;2023-03-20T05:46:20;95380.22;;;4.13;64.60
77723;BME280;67811;42.656;23.394;2023-03-20T05:48:51;95387.38;;;4.50;63.25
77723;BME280;67811;42.656;23.394;2023-03-20T05:51:22;95383.97;;;4.96;61.97
77723;BME280;67811;42.656;23.394;2023-03-20T05:53:52;95382.25;;;5.42;60.88
77723;BME280;67811;42.656;23.394;2023-03-20T05:56:23;95395.53;;;5.96;59.39
77723;BME280;67811;42.656;23.394;2023-03-20T05:58:55;95391.47;;;6.37;57.55
77723;BME280;67811;42.656;23.394;2023-03-20T06:01:25;95398.00;;;6.69;56.57
77723;BME280;67811;42.656;23.394;2023-03-20T06:03:56;95386.47;;;6.88;56.08
77723;BME280;67811;42.656;23.394;2023-03-20T06:06:26;95380.31;;;7.05;55.76
77723;BME280;67811;42.656;23.394;2023-03-20T06:08:57;95379.50;;;7.38;56.34
77723;BME280;67811;42.656;23.394;2023-03-20T06:11:27;95379.28;;;7.74;52.91
77723;BME280;67811;42.656;23.394;2023-03-20T06:13:59;95378.72;;;7.97;52.62
77723;BME280;67811;42.656;23.394;2023-03-20T06:16:30;95380.75;;;8.27;50.83
77723;BME280;67811;42.656;23.394;2023-03-20T06:19:00;95373.34;;;8.39;50.69
77723;BME280;67811;42.656;23.394;2023-03-20T06:21:31;95383.94;;;8.63;49.73
77723;BME280;67811;42.656;23.394;2023-03-20T06:24:01;95380.28;;;8.73;49.33
77723;BME280;67811;42.656;23.394;2023-03-20T06:26:32;95379.44;;;9.05;48.64
77723;BME280;67811;42.656;23.394;2023-03-20T06:29:04;95390.91;;;9.44;48.32
77723;BME280;67811;42.656;23.394;2023-03-20T06:31:34;95388.34;;;9.67;47.74
77723;BME280;67811;42.656;23.394;2023-03-20T06:34:05;95386.66;;;9.74;47.48
77723;BME280;67811;42.656;23.394;2023-03-20T06:36:35;95388.88;;;9.63;47.23
77723;BME280;67811;42.656;23.394;2023-03-20T06:39:06;95375.78;;;10.00;47.44
77723;BME280;67811;42.656;23.394;2023-03-20T06:41:36;95379.03;;;10.42;46.01
77723;BME280;67811;42.656;23.394;2023-03-20T06:44:09;95377.03;;;10.67;45.36
77723;BME280;67811;42.656;23.394;2023-03-20T06:46:39;95381.19;;;11.22;44.57
77723;BME280;67811;42.656;23.394;2023-03-20T06:49:10;95381.84;;;11.83;43.06
77723;BME280;67811;42.656;23.394;2023-03-20T06:51:40;95379.34;;;12.32;41.96
77723;BME280;67811;42.656;23.394;2023-03-20T06:54:11;95382.09;;;12.82;40.64
77723;BME280;67811;42.656;23.394;2023-03-20T06:56:42;95369.97;;;13.29;39.37
77723;BME280;67811;42.656;23.394;2023-03-20T06:59:14;95369.66;;;12.68;39.59
77723;BME280;67811;42.656;23.394;2023-03-20T07:01:44;95359.59;;;12.84;40.39
77723;BME280;67811;42.656;23.394;2023-03-20T07:04:15;95359.47;;;13.21;39.44
77723;BME280;67811;42.656;23.394;2023-03-20T07:06:45;95348.44;;;13.93;37.78
77723;BME280;67811;42.656;23.394;2023-03-20T07:09:16;95355.09;;;14.23;36.88
77723;BME280;67811;42.656;23.394;2023-03-20T07:11:47;95349.69;;;15.05;35.26
77723;BME280;67811;42.656;23.394;2023-03-20T07:14:19;95355.81;;;15.32;35.10
77723;BME280;67811;42.656;23.394;2023-03-20T07:16:50;95356.47;;;14.94;35.18
77723;BME280;67811;42.656;23.394;2023-03-20T07:19:20;95353.53;;;15.62;34.28
77723;BME280;67811;42.656;23.394;2023-03-20T07:21:54;95352.28;;;15.77;33.67
77723;BME280;67811;42.656;23.394;2023-03-20T07:24:27;95349.50;;;16.04;33.16
77723;BME280;67811;42.656;23.394;2023-03-20T07:26:58;95342.53;;;15.96;33.30
77723;BME280;67811;42.656;23.394;2023-03-20T07:29:30;95345.16;;;16.48;32.56
77723;BME280;67811;42.656;23.394;2023-03-20T07:32:00;95343.97;;;16.75;32.07
77723;BME280;67811;42.656;23.394;2023-03-20T07:34:31;95343.31;;;17.36;30.61
77723;BME280;67811;42.656;23.394;2023-03-20T07:37:01;95334.00;;;17.82;30.24
77723;BME280;67811;42.656;23.394;2023-03-20T07:39:32;95331.44;;;18.24;29.49
77723;BME280;67811;42.656;23.394;2023-03-20T07:42:04;95331.50;;;18.17;29.74
77723;BME280;67811;42.656;23.394;2023-03-20T07:44:36;95341.81;;;18.02;30.17
77723;BME280;67811;42.656;23.394;2023-03-20T07:47:06;95344.09;;;18.17;29.95
77723;BME280;67811;42.656;23.394;2023-03-20T07:49:37;95341.97;;;18.37;29.54
77723;BME280;67811;42.656;23.394;2023-03-20T07:52:07;95333.06;;;18.25;29.79
77723;BME280;67811;42.656;23.394;2023-03-20T07:54:38;95343.69;;;18.62;29.18
77723;BME280;67811;42.656;23.394;2023-03-20T07:57:08;95347.41;;;18.79;28.81
77723;BME280;67811;42.656;23.394;2023-03-20T07:59:40;95341.56;;;19.59;27.26
77723;BME280;67811;42.656;23.394;2023-03-20T08:02:13;95345.53;;;19.80;27.42
77723;BME280;67811;42.656;23.394;2023-03-20T08:04:44;95342.44;;;20.12;27.13
77723;BME280;67811;42.656;23.394;2023-03-20T08:07:15;95346.75;;;20.82;26.06
77723;BME280;67811;42.656;23.394;2023-03-20T08:09:45;95342.16;;;20.82;25.70
77723;BME280;67811;42.656;23.394;2023-03-20T08:12:16;95346.19;;;20.79;25.38
77723;BME280;67811;42.656;23.394;2023-03-20T08:14:48;95335.28;;;20.58;27.38
77723;BME280;67811;42.656;23.394;2023-03-20T08:17:19;95336.44;;;21.57;25.14
77723;BME280;67811;42.656;23.394;2023-03-20T08:19:49;95333.03;;;22.23;24.72
77723;BME280;67811;42.656;23.394;2023-03-20T08:22:20;95335.72;;;22.23;24.14
77723;BME280;67811;42.656;23.394;2023-03-20T08:24:50;95339.28;;;22.50;24.05
77723;BME280;67811;42.656;23.394;2023-03-20T08:27:21;95339.91;;;22.84;23.17
77723;BME280;67811;42.656;23.394;2023-03-20T08:29:53;95334.66;;;22.73;23.60
77723;BME280;67811;42.656;23.394;2023-03-20T08:32:24;95338.78;;;23.02;23.19
77723;BME280;67811;42.656;23.394;2023-03-20T08:34:54;95342.94;;;22.39;23.66
77723;BME280;67811;42.656;23.394;2023-03-20T08:37:25;95349.94;;;22.62;23.53
77723;BME280;67811;42.656;23.394;2023-03-20T08:39:56;95345.63;;;22.17;24.56
77723;BME280;67811;42.656;23.394;2023-03-20T08:42:26;95346.88;;;22.53;24.27
77723;BME280;67811;42.656;23.394;2023-03-20T08:44:58;95350.47;;;22.15;24.92
77723;BME280;67811;42.656;23.394;2023-03-20T08:47:29;95338.00;;;22.31;24.58
77723;BME280;67811;42.656;23.394;2023-03-20T08:49:59;95330.25;;;22.88;23.39
77723;BME280;67811;42.656;23.394;2023-03-20T08:52:30;95335.88;;;23.46;23.22
77723;BME280;67811;42.656;23.394;2023-03-20T08:55:01;95329.34;;;23.74;22.41
77723;BME280;67811;42.656;23.394;2023-03-20T08:57:31;95332.91;;;23.80;22.52
77723;BME280;67811;42.656;23.394;2023-03-20T09:00:04;95333.84;;;24.11;21.98
77723;BME280;67811;42.656;23.394;2023-03-20T09:02:35;95325.69;;;24.01;21.32
77723;BME280;67811;42.656;23.394;2023-03-20T09:05:06;95322.50;;;24.14;21.15
77723;BME280;67811;42.656;23.394;2023-03-20T09:07:37;95327.22;;;24.39;20.62
77723;BME280;67811;42.656;23.394;2023-03-20T09:10:09;95319.00;;;24.13;21.43
77723;BME280;67811;42.656;23.394;2023-03-20T09:12:40;95320.75;;;23.87;21.20
77723;BME280;67811;42.656;23.394;2023-03-20T09:15:12;95314.28;;;23.93;21.99
77723;BME280;67811;42.656;23.394;2023-03-20T09:17:43;95315.34;;;24.45;20.70
77723;BME280;67811;42.656;23.394;2023-03-20T09:20:13;95316.41;;;24.39;21.31
77723;BME280;67811;42.656;23.394;2023-03-20T09:22:44;95308.59;;;23.95;21.21
77723;BME280;67811;42.656;23.394;2023-03-20T09:25:15;95309.41;;;23.90;21.07
77723;BME280;67811;42.656;23.394;2023-03-20T09:27:45;95302.59;;;23.08;21.63
77723;BME280;67811;42.656;23.394;2023-03-20T09:30:17;95302.72;;;22.65;22.59
77723;BME280;67811;42.656;23.394;2023-03-20T09:32:48;95301.34;;;21.96;23.04
77723;BME280;67811;42.656;23.394;2023-03-20T09:35:20;95311.56;;;21.72;23.52
77723;BME280;67811;42.656;23.394;2023-03-20T09:37:50;95296.56;;;22.20;23.64
77723;BME280;67811;42.656;23.394;2023-03-20T09:40:24;95294.25;;;22.56;23.41
77723;BME280;67811;42.656;23.394;2023-03-20T09:43:01;95289.81;;;22.72;23.00
77723;BME280;67811;42.656;23.394;2023-03-20T09:45:45;95285.81;;;21.81;23.46
77723;BME280;67811;42.656;23.394;2023-03-20T09:48:26;95275.00;;;22.03;23.50
77723;BME280;67811;42.656;23.394;2023-03-20T09:51:06;95271.78;;;22.06;23.76
77723;BME280;67811;42.656;23.394;2023-03-20T09:53:41;95256.50;;;21.90;23.64
77723;BME280;67811;42.656;23.394;2023-03-20T09:56:18;95255.94;;;22.10;23.49
77723;BME280;67811;42.656;23.394;2023-03-20T09:58:52;95247.88;;;22.64;22.45
77723;BME280;67811;42.656;23.394;2023-03-20T10:01:28;95246.28;;;22.68;23.08
77723;BME280;67811;42.656;23.394;2023-03-20T10:04:05;95245.81;;;22.22;23.59
77723;BME280;67811;42.656;23.394;2023-03-20T10:06:37;95234.97;;;21.51;23.73
77723;BME280;67811;42.656;23.394;2023-03-20T10:09:15;95234.91;;;21.13;24.37
77723;BME280;67811;42.656;23.394;2023-03-20T10:12:08;95233.16;;;20.39;25.80
77723;BME280;67811;42.656;23.394;2023-03-20T10:14:49;95220.38;;;19.37;27.78
77723;BME280;67811;42.656;23.394;2023-03-20T10:17:41;95218.94;;;18.53;28.89
77723;BME280;67811;42.656;23.394;2023-03-20T10:20:22;95224.63;;;18.44;28.59
77723;BME280;67811;42.656;23.394;2023-03-20T10:22:57;95225.56;;;18.50;28.58
77723;BME280;67811;42.656;23.394;2023-03-20T10:25:30;95222.69;;;18.52;28.84
77723;BME280;67811;42.656;23.394;2023-03-20T10:28:05;95214.44;;;18.88;29.30
77723;BME280;67811;42.656;23.394;2023-03-20T10:30:49;95209.31;;;19.10;29.19
77723;BME280;67811;42.656;23.394;2023-03-20T10:33:32;95213.50;;;19.06;28.15
77723;BME280;67811;42.656;23.394;2023-03-20T10:36:19;95205.94;;;18.91;29.00
77723;BME280;67811;42.656;23.394;2023-03-20T10:38:58;95207.59;;;18.39;29.36
77723;BME280;67811;42.656;23.394;2023-03-20T10:41:37;95203.41;;;18.43;29.75
77723;BME280;67811;42.656;23.394;2023-03-20T10:44:15;95188.63;;;18.64;29.37
77723;BME280;67811;42.656;23.394;2023-03-20T10:46:50;95187.00;;;18.63;29.27
77723;BME280;67811;42.656;23.394;2023-03-20T10:49:29;95185.59;;;18.84;28.36
77723;BME280;67811;42.656;23.394;2023-03-20T10:52:03;95182.81;;;18.79;28.54
77723;BME280;67811;42.656;23.394;2023-03-20T10:54:39;95183.16;;;18.94;28.33
77723;BME280;67811;42.656;23.394;2023-03-20T10:57:13;95174.41;;;18.87;28.55
77723;BME280;67811;42.656;23.394;2023-03-20T10:59:49;95168.00;;;18.76;28.32
77723;BME280;67811;42.656;23.394;2023-03-20T11:02:21;95168.94;;;18.70;28.17
77723;BME280;67811;42.656;23.394;2023-03-20T11:04:53;95158.03;;;18.65;28.37
77723;BME280;67811;42.656;23.394;2023-03-20T11:07:25;95160.47;;;18.31;28.78
77723;BME280;67811;42.656;23.394;2023-03-20T11:10:07;95163.50;;;17.81;29.34
77723;BME280;67811;42.656;23.394;2023-03-20T11:12:40;95152.25;;;17.73;30.41
77723;BME280;67811;42.656;23.394;2023-03-20T11:15:20;95152.91;;;17.68;30.04
77723;BME280;67811;42.656;23.394;2023-03-20T11:17:55;95146.38;;;17.64;29.81
77723;BME280;67811;42.656;23.394;2023-03-20T11:20:36;95146.81;;;17.61;29.60
77723;BME280;67811;42.656;23.394;2023-03-20T11:23:14;95145.22;;;17.72;29.72
77723;BME280;67811;42.656;23.394;2023-03-20T11:25:49;95135.56;;;17.71;29.50
77723;BME280;67811;42.656;23.394;2023-03-20T11:28:35;95134.72;;;17.58;29.67
77723;BME280;67811;42.656;23.394;2023-03-20T11:31:15;95125.97;;;17.81;29.77
77723;BME280;67811;42.656;23.394;2023-03-20T11:33:50;95122.13;;;17.89;29.22
77723;BME280;67811;42.656;23.394;2023-03-20T11:36:26;95117.81;;;17.88;29.51
77723;BME280;67811;42.656;23.394;2023-03-20T11:39:00;95116.50;;;17.79;29.11
77723;BME280;67811;42.656;23.394;2023-03-20T11:41:40;95116.06;;;17.82;29.17
77723;BME280;67811;42.656;23.394;2023-03-20T11:44:27;95101.16;;;17.86;29.30
77723;BME280;67811;42.656;23.394;2023-03-20T11:47:00;95099.19;;;17.93;29.13
77723;BME280;67811;42.656;23.394;2023-03-20T11:49:32;95090.47;;;18.09;28.91
77723;BME280;67811;42.656;23.394;2023-03-20T11:52:20;95082.75;;;18.13;29.00
77723;BME280;67811;42.656;23.394;2023-03-20T11:54:53;95080.44;;;18.05;28.95
77723;BME280;67811;42.656;23.394;2023-03-20T11:57:30;95076.31;;;17.90;29.03
77723;BME280;67811;42.656;23.394;2023-03-20T12:00:15;95076.44;;;17.96;28.97
77723;BME280;67811;42.656;23.394;2023-03-20T12:02:46;95076.19;;;17.85;28.44
77723;BME280;67811;42.656;23.394;2023-03-20T12:05:22;95067.69;;;17.88;29.18
77723;BME280;67811;42.656;23.394;2023-03-20T12:08:01;95062.09;;;18.02;29.00
77723;BME280;67811;42.656;23.394;2023-03-20T12:10:35;95056.19;;;18.23;27.94
77723;BME280;67811;42.656;23.394;2023-03-20T12:13:12;95060.16;;;18.09;26.87
77723;BME280;67811;42.656;23.394;2023-03-20T12:15:46;95056.41;;;17.98;26.91
77723;BME280;67811;42.656;23.394;2023-03-20T12:18:24;95036.84;;;18.09;27.46
77723;BME280;67811;42.656;23.394;2023-03-20T12:21:01;95047.31;;;18.23;27.18
77723;BME280;67811;42.656;23.394;2023-03-20T12:23:39;95039.75;;;18.20;26.90
77723;BME280;67811;42.656;23.394;2023-03-20T12:26:13;95038.22;;;18.24;26.23
77723;BME280;67811;42.656;23.394;2023-03-20T12:28:49;95041.03;;;18.29;25.99
77723;BME280;67811;42.656;23.394;2023-03-20T12:31:25;95037.63;;;18.33;25.87
77723;BME280;67811;42.656;23.394;2023-03-20T12:34:02;95035.56;;;18.35;25.90
77723;BME280;67811;42.656;23.394;2023-03-20T12:36:34;95030.88;;;18.54;26.44
77723;BME280;67811;42.656;23.394;2023-03-20T12:39:11;95023.03;;;18.64;26.46
77723;BME280;67811;42.656;23.394;2023-03-20T12:41:53;95017.66;;;18.64;26.13
77723;BME280;67811;42.656;23.394;2023-03-20T12:44:38;95021.41;;;18.63;26.14
77723;BME280;67811;42.656;23.394;2023-03-20T12:47:16;95011.38;;;18.71;26.08
77723;BME280;67811;42.656;23.394;2023-03-20T12:49:55;95013.81;;;18.60;25.41
77723;BME280;67811;42.656;23.394;2023-03-20T12:52:37;95003.47;;;18.52;24.76
77723;BME280;67811;42.656;23.394;2023-03-20T12:55:31;95000.66;;;18.47;25.54
77723;BME280;67811;42.656;23.394;2023-03-20T12:58:12;94989.56;;;18.43;25.11
77723;BME280;67811;42.656;23.394;2023-03-20T13:00:44;95003.25;;;18.42;24.94
77723;BME280;67811;42.656;23.394;2023-03-20T13:03:28;94990.16;;;18.34;24.02
77723;BME280;67811;42.656;23.394;2023-03-20T13:06:08;94992.63;;;18.35;24.01
77723;BME280;67811;42.656;23.394;2023-03-20T13:09:12;94989.84;;;18.30;23.69
77723;BME280;67811;42.656;23.394;2023-03-20T13:11:55;94983.31;;;18.26;23.99
77723;BME280;67811;42.656;23.394;2023-03-20T13:14:34;94981.91;;;18.35;24.63
77723;BME280;67811;42.656;23.394;2023-03-20T13:17:15;94974.66;;;18.48;22.62
77723;BME280;67811;42.656;23.394;2023-03-20T13:19:54;94973.13;;;18.40;23.11
77723;BME280;67811;42.656;23.394;2023-03-20T13:22:36;94971.84;;;18.42;23.96
77723;BME280;67811;42.656;23.394;2023-03-20T13:25:18;94964.06;;;18.41;23.89
77723;BME280;67811;42.656;23.394;2023-03-20T13:27:58;94958.78;;;18.34;23.15
77723;BME280;67811;42.656;23.394;2023-03-20T13:30:36;94959.16;;;18.26;22.30
77723;BME280;67811;42.656;23.394;2023-03-20T13:33:20;94953.69;;;18.21;23.41